Time,TemperatureF,DewpointF,PressureIn,WindDirection,WindDirectionDegrees,WindSpeedMPH,WindSpeedGustMPH,Humidity,HourlyPrecipIn,Conditions,Clouds,dailyrainin,SoftwareType,DateUTC
2013-07-05 00:09:00,56.3,51.8,30.26,North,9,0.0,0.0,85,0.00,,,0.00,Wunderground v.1.15,2013-07-04 23:09:00,
2013-07-05 00:14:00,56.2,52.1,30.26,North,5,0.0,0.0,86,0.00,,,0.00,Wunderground v.1.15,2013-07-04 23:14:00,
2013-07-05 00:19:00,56.0,51.9,30.26,North,5,0.0,0.0,86,0.00,,,0.00,Wunderground v.1.15,2013-07-04 23:19:00,
2013-07-05 00:24:00,55.9,51.8,30.26,North,5,0.0,0.0,86,0.00,,,0.00,Wunderground v.1.15,2013-07-04 23:24:00,
2013-07-05 00:29:00,55.7,51.9,30.27,North,5,0.0,0.0,87,0.00,,,0.00,Wunderground v.1.15,2013-07-04 23:29:00,
2013-07-05 00:39:00,55.4,51.6,30.27,North,5,0.0,0.0,87,0.00,,,0.00,Wunderground v.1.15,2013-07-04 23:39:00,
2013-07-05 00:44:00,55.2,51.4,30.27,North,5,0.0,0.0,87,0.00,,,0.00,Wunderground v.1.15,2013-07-04 23:44:00,
2013-07-05 00:54:00,54.9,51.4,30.27,North,5,0.0,0.0,88,0.00,,,0.00,Wunderground v.1.15,2013-07-04 23:54:00,
2013-07-05 00:59:00,54.8,51.3,30.27,North,5,0.0,0.0,88,0.00,,,0.00,Wunderground v.1.15,2013-07-04 23:59:00,
2013-07-05 01:09:00,54.5,51.3,30.28,North,5,0.0,0.0,89,0.00,,,0.00,Wunderground v.1.15,2013-07-05 00:09:00,
2013-07-05 01:14:00,54.4,51.2,30.28,North,5,0.0,0.0,89,0.00,,,0.00,Wunderground v.1.15,2013-07-05 00:14:00,
2013-07-05 01:24:00,54.0,51.1,30.28,North,5,0.0,0.0,90,0.00,,,0.00,Wunderground v.1.15,2013-07-05 00:24:00,
2013-07-05 01:29:00,53.9,51.0,30.28,North,5,0.0,0.0,90,0.00,,,0.00,Wunderground v.1.15,2013-07-05 00:29:00,
2013-07-05 01:39:00,53.6,50.7,30.28,North,5,0.0,0.0,90,0.00,,,0.00,Wunderground v.1.15,2013-07-05 00:39:00,
2013-07-05 01:44:00,53.5,50.9,30.28,North,5,0.0,0.0,91,0.00,,,0.00,Wunderground v.1.15,2013-07-05 00:44:00,
2013-07-05 01:54:00,53.4,51.1,30.28,North,5,0.0,0.0,92,0.00,,,0.00,Wunderground v.1.15,2013-07-05 00:54:00,
2013-07-05 01:59:00,53.3,50.7,30.29,North,5,0.0,0.0,91,0.00,,,0.00,Wunderground v.1.15,2013-07-05 00:59:00,
2013-07-05 02:09:00,53.1,50.8,30.29,North,5,0.0,0.0,92,0.00,,,0.00,Wunderground v.1.15,2013-07-05 01:09:00,
2013-07-05 02:14:00,53.0,50.7,30.29,North,5,0.0,0.0,92,0.00,,,0.00,Wunderground v.1.15,2013-07-05 01:14:00,
2013-07-05 02:19:00,52.9,50.6,30.29,North,5,0.0,0.0,92,0.00,,,0.00,Wunderground v.1.15,2013-07-05 01:19:00,
2013-07-05 02:24:00,52.8,50.5,30.29,North,5,0.0,0.0,92,0.00,,,0.00,Wunderground v.1.15,2013-07-05 01:24:00,
2013-07-05 02:29:00,52.7,50.4,30.29,North,5,0.0,0.0,92,0.00,,,0.00,Wunderground v.1.15,2013-07-05 01:29:00,
2013-07-05 02:39:00,52.4,50.1,30.29,North,5,0.0,0.0,92,0.00,,,0.00,Wunderground v.1.15,2013-07-05 01:39:00,
2013-07-05 02:44:00,52.3,50.3,30.29,North,5,0.0,0.0,93,0.00,,,0.00,Wunderground v.1.15,2013-07-05 01:44:00,
2013-07-05 02:54:00,52.1,50.1,30.29,North,5,0.0,0.0,93,0.00,,,0.00,Wunderground v.1.15,2013-07-05 01:54:00,
2013-07-05 02:59:00,52.0,50.0,30.29,North,5,0.0,0.0,93,0.00,,,0.00,Wunderground v.1.15,2013-07-05 01:59:00,
2013-07-05 03:09:00,51.8,49.8,30.29,North,5,0.0,0.0,93,0.00,,,0.00,Wunderground v.1.15,2013-07-05 02:09:00,
2013-07-05 03:14:00,51.7,49.7,30.29,North,5,0.0,0.0,93,0.00,,,0.00,Wunderground v.1.15,2013-07-05 02:14:00,
2013-07-05 03:24:00,51.5,49.5,30.29,North,5,0.0,0.0,93,0.00,,,0.00,Wunderground v.1.15,2013-07-05 02:24:00,
2013-07-05 03:29:00,51.5,49.5,30.30,North,5,0.0,0.0,93,0.00,,,0.00,Wunderground v.1.15,2013-07-05 02:29:00,
2013-07-05 03:39:00,51.4,49.4,30.30,North,9,0.0,0.0,93,0.00,,,0.00,Wunderground v.1.15,2013-07-05 02:39:00,
2013-07-05 03:44:00,51.3,49.3,30.30,North,9,0.0,0.0,93,0.00,,,0.00,Wunderground v.1.15,2013-07-05 02:44:00,
2013-07-05 03:49:00,51.2,49.5,30.30,North,9,0.0,0.0,94,0.00,,,0.00,Wunderground v.1.15,2013-07-05 02:49:00,
2013-07-05 03:54:00,51.2,49.5,30.30,North,5,0.0,0.0,94,0.00,,,0.00,Wunderground v.1.15,2013-07-05 02:54:00,
2013-07-05 03:59:00,51.0,49.3,30.31,North,5,0.0,0.0,94,0.00,,,0.00,Wunderground v.1.15,2013-07-05 02:59:00,
2013-07-05 04:09:00,50.9,49.2,30.31,North,5,0.0,0.0,94,0.00,,,0.00,Wunderground v.1.15,2013-07-05 03:09:00,
2013-07-05 04:14:00,50.9,49.2,30.31,North,5,0.0,0.0,94,0.00,,,0.00,Wunderground v.1.15,2013-07-05 03:14:00,
2013-07-05 04:24:00,50.8,49.1,30.32,North,5,0.0,0.0,94,0.00,,,0.00,Wunderground v.1.15,2013-07-05 03:24:00,
2013-07-05 04:29:00,50.8,49.1,30.32,North,9,0.0,0.0,94,0.00,,,0.00,Wunderground v.1.15,2013-07-05 03:29:00,
2013-07-05 04:39:00,50.8,49.4,30.32,North,5,0.0,0.0,95,0.00,,,0.00,Wunderground v.1.15,2013-07-05 03:39:00,
2013-07-05 04:44:00,50.7,49.3,30.32,North,5,0.0,0.0,95,0.00,,,0.00,Wunderground v.1.15,2013-07-05 03:44:00,
2013-07-05 04:54:00,50.8,49.4,30.33,North,5,0.0,0.0,95,0.00,,,0.00,Wunderground v.1.15,2013-07-05 03:54:00,
2013-07-05 04:59:00,50.8,49.4,30.33,North,5,0.0,0.0,95,0.00,,,0.00,Wunderground v.1.15,2013-07-05 03:59:00,
2013-07-05 05:04:00,50.9,49.5,30.33,North,5,0.0,0.0,95,0.00,,,0.00,Wunderground v.1.15,2013-07-05 04:04:00,
2013-07-05 05:09:00,50.9,49.5,30.33,North,5,0.0,0.0,95,0.00,,,0.00,Wunderground v.1.15,2013-07-05 04:09:00,
2013-07-05 05:14:00,50.9,49.5,30.33,North,5,0.0,0.0,95,0.00,,,0.00,Wunderground v.1.15,2013-07-05 04:14:00,
2013-07-05 05:19:00,50.9,49.5,30.34,North,9,0.0,0.0,95,0.00,,,0.00,Wunderground v.1.15,2013-07-05 04:19:00,
2013-07-05 05:29:00,51.0,49.6,30.34,North,5,0.0,0.0,95,0.00,,,0.00,Wunderground v.1.15,2013-07-05 04:29:00,
2013-07-05 05:34:00,51.0,49.6,30.34,North,5,0.0,0.0,95,0.00,,,0.00,Wunderground v.1.15,2013-07-05 04:34:00,
2013-07-05 05:39:00,51.0,49.6,30.34,North,5,0.0,0.0,95,0.00,,,0.00,Wunderground v.1.15,2013-07-05 04:39:00,
2013-07-05 05:44:00,51.0,49.6,30.34,North,5,0.0,0.0,95,0.00,,,0.00,Wunderground v.1.15,2013-07-05 04:44:00,
2013-07-05 05:54:00,51.2,49.8,30.34,North,5,0.0,0.0,95,0.00,,,0.00,Wunderground v.1.15,2013-07-05 04:54:00,
2013-07-05 05:59:00,51.3,49.9,30.34,North,5,0.0,0.0,95,0.00,,,0.00,Wunderground v.1.15,2013-07-05 04:59:00,
2013-07-05 06:09:00,51.6,50.5,30.35,North,5,0.0,0.0,96,0.00,,,0.00,Wunderground v.1.15,2013-07-05 05:09:00,